sensor_id;sensor_type;location;lat;lon;timestamp;temperature;humidity
66312;HTU21D;53114;51.138;6.008;2023-04-23T00:02:09;10.33;118.99
66312;HTU21D;53114;51.138;6.008;2023-04-23T00:04:50;10.34;118.99
66312;HTU21D;53114;51.138;6.008;2023-04-23T00:07:19;10.36;118.99
66312;HTU21D;53114;51.138;6.008;2023-04-23T00:09:46;10.40;118.99
66312;HTU21D;53114;51.138;6.008;2023-04-23T00:12:12;10.43;118.99
66312;HTU21D;53114;51.138;6.008;2023-04-23T00:14:38;10.42;118.99
66312;HTU21D;53114;51.138;6.008;2023-04-23T00:17:04;10.44;118.99
66312;HTU21D;53114;51.138;6.008;2023-04-23T00:19:30;10.44;118.99
66312;HTU21D;53114;51.138;6.008;2023-04-23T00:21:56;10.42;118.99
66312;HTU21D;53114;51.138;6.008;2023-04-23T00:24:22;10.42;118.99
66312;HTU21D;53114;51.138;6.008;2023-04-23T00:26:48;10.44;118.99
66312;HTU21D;53114;51.138;6.008;2023-04-23T00:29:14;10.42;118.99
66312;HTU21D;53114;51.138;6.008;2023-04-23T00:31:40;10.42;118.99
66312;HTU21D;53114;51.138;6.008;2023-04-23T00:34:06;10.40;118.99
66312;HTU21D;53114;51.138;6.008;2023-04-23T00:36:32;10.36;118.99
66312;HTU21D;53114;51.138;6.008;2023-04-23T00:38:58;10.31;118.99
66312;HTU21D;53114;51.138;6.008;2023-04-23T00:41:24;10.24;118.99
66312;HTU21D;53114;51.138;6.008;2023-04-23T00:43:52;10.21;118.99
66312;HTU21D;53114;51.138;6.008;2023-04-23T00:46:19;10.16;118.99
66312;HTU21D;53114;51.138;6.008;2023-04-23T00:48:46;10.07;118.99
66312;HTU21D;53114;51.138;6.008;2023-04-23T00:51:12;10.05;118.99
66312;HTU21D;53114;51.138;6.008;2023-04-23T00:53:40;10.05;118.99
66312;HTU21D;53114;51.138;6.008;2023-04-23T00:56:06;10.08;118.99
66312;HTU21D;53114;51.138;6.008;2023-04-23T00:58:33;10.08;118.99
66312;HTU21D;53114;51.138;6.008;2023-04-23T01:00:59;10.08;118.99
66312;HTU21D;53114;51.138;6.008;2023-04-23T01:03:30;10.06;118.99
66312;HTU21D;53114;51.138;6.008;2023-04-23T01:05:57;9.99;118.99
66312;HTU21D;53114;51.138;6.008;2023-04-23T01:08:23;9.93;118.99
66312;HTU21D;53114;51.138;6.008;2023-04-23T01:10:51;9.89;118.99
66312;HTU21D;53114;51.138;6.008;2023-04-23T01:13:18;9.82;118.99
66312;HTU21D;53114;51.138;6.008;2023-04-23T01:15:44;9.83;118.99
66312;HTU21D;53114;51.138;6.008;2023-04-23T01:18:11;9.84;118.99
66312;HTU21D;53114;51.138;6.008;2023-04-23T01:20:37;9.86;118.99
66312;HTU21D;53114;51.138;6.008;2023-04-23T01:23:05;9.90;118.99
66312;HTU21D;53114;51.138;6.008;2023-04-23T01:25:31;9.98;118.99
66312;HTU21D;53114;51.138;6.008;2023-04-23T01:27:58;10.09;118.99
66312;HTU21D;53114;51.138;6.008;2023-04-23T01:30:26;10.16;118.99
66312;HTU21D;53114;51.138;6.008;2023-04-23T01:32:56;10.25;118.99
66312;HTU21D;53114;51.138;6.008;2023-04-23T01:35:24;10.33;118.99
66312;HTU21D;53114;51.138;6.008;2023-04-23T01:37:51;10.39;118.99
66312;HTU21D;53114;51.138;6.008;2023-04-23T01:40:19;10.43;118.99
66312;HTU21D;53114;51.138;6.008;2023-04-23T01:42:46;10.48;118.99
66312;HTU21D;53114;51.138;6.008;2023-04-23T01:45:13;10.51;118.99
66312;HTU21D;53114;51.138;6.008;2023-04-23T01:47:40;10.59;118.99
66312;HTU21D;53114;51.138;6.008;2023-04-23T01:50:07;10.67;118.99
66312;HTU21D;53114;51.138;6.008;2023-04-23T01:52:33;10.70;118.99
66312;HTU21D;53114;51.138;6.008;2023-04-23T01:54:59;10.69;118.99
66312;HTU21D;53114;51.138;6.008;2023-04-23T01:57:26;10.67;118.99
66312;HTU21D;53114;51.138;6.008;2023-04-23T02:00:02;10.66;118.99
66312;HTU21D;53114;51.138;6.008;2023-04-23T02:02:39;10.63;118.99
66312;HTU21D;53114;51.138;6.008;2023-04-23T02:05:24;10.65;118.99
66312;HTU21D;53114;51.138;6.008;2023-04-23T02:07:54;10.66;118.99
66312;HTU21D;53114;51.138;6.008;2023-04-23T02:10:21;10.65;118.99
66312;HTU21D;53114;51.138;6.008;2023-04-23T02:12:47;10.59;118.99
66312;HTU21D;53114;51.138;6.008;2023-04-23T02:15:14;10.53;118.99
66312;HTU21D;53114;51.138;6.008;2023-04-23T02:17:40;10.45;118.99
66312;HTU21D;53114;51.138;6.008;2023-04-23T02:20:08;10.43;118.99
66312;HTU21D;53114;51.138;6.008;2023-04-23T02:22:35;10.42;118.99
66312;HTU21D;53114;51.138;6.008;2023-04-23T02:25:02;10.40;118.99
66312;HTU21D;53114;51.138;6.008;2023-04-23T02:27:28;10.41;118.99
66312;HTU21D;53114;51.138;6.008;2023-04-23T02:29:54;10.44;118.99
66312;HTU21D;53114;51.138;6.008;2023-04-23T02:32:21;10.41;118.99
66312;HTU21D;53114;51.138;6.008;2023-04-23T02:34:47;10.37;118.99
66312;HTU21D;53114;51.138;6.008;2023-04-23T02:37:13;10.34;118.99
66312;HTU21D;53114;51.138;6.008;2023-04-23T02:39:39;10.33;118.99
66312;HTU21D;53114;51.138;6.008;2023-04-23T02:42:05;10.28;118.99
66312;HTU21D;53114;51.138;6.008;2023-04-23T02:44:31;10.27;118.99
66312;HTU21D;53114;51.138;6.008;2023-04-23T02:46:57;10.27;118.99
66312;HTU21D;53114;51.138;6.008;2023-04-23T02:49:23;10.25;118.99
66312;HTU21D;53114;51.138;6.008;2023-04-23T02:51:49;10.25;118.99
66312;HTU21D;53114;51.138;6.008;2023-04-23T02:54:15;10.25;118.99
66312;HTU21D;53114;51.138;6.008;2023-04-23T02:56:41;10.24;118.99
66312;HTU21D;53114;51.138;6.008;2023-04-23T02:59:07;10.22;118.99
66312;HTU21D;53114;51.138;6.008;2023-04-23T03:01:33;10.22;118.99
66312;HTU21D;53114;51.138;6.008;2023-04-23T03:04:00;10.24;118.99
66312;HTU21D;53114;51.138;6.008;2023-04-23T03:06:26;10.28;118.99
66312;HTU21D;53114;51.138;6.008;2023-04-23T03:08:52;10.26;118.99
66312;HTU21D;53114;51.138;6.008;2023-04-23T03:11:18;10.23;118.99
66312;HTU21D;53114;51.138;6.008;2023-04-23T03:13:44;10.26;118.99
66312;HTU21D;53114;51.138;6.008;2023-04-23T03:16:10;10.29;118.99
66312;HTU21D;53114;51.138;6.008;2023-04-23T03:18:36;10.36;118.99
66312;HTU21D;53114;51.138;6.008;2023-04-23T03:21:02;10.42;118.99
66312;HTU21D;53114;51.138;6.008;2023-04-23T03:23:28;10.45;118.99
66312;HTU21D;53114;51.138;6.008;2023-04-23T03:25:54;10.50;118.99
66312;HTU21D;53114;51.138;6.008;2023-04-23T03:28:20;10.53;118.99
66312;HTU21D;53114;51.138;6.008;2023-04-23T03:30:46;10.52;118.99
66312;HTU21D;53114;51.138;6.008;2023-04-23T03:33:12;10.49;118.99
66312;HTU21D;53114;51.138;6.008;2023-04-23T03:35:39;10.45;118.99
66312;HTU21D;53114;51.138;6.008;2023-04-23T03:38:09;10.41;118.99
66312;HTU21D;53114;51.138;6.008;2023-04-23T03:40:36;10.35;118.99
66312;HTU21D;53114;51.138;6.008;2023-04-23T03:43:03;10.27;118.99
66312;HTU21D;53114;51.138;6.008;2023-04-23T03:45:47;10.13;118.99
66312;HTU21D;53114;51.138;6.008;2023-04-23T03:48:13;10.01;118.99
66312;HTU21D;53114;51.138;6.008;2023-04-23T03:50:39;9.90;118.99
66312;HTU21D;53114;51.138;6.008;2023-04-23T03:53:20;9.75;118.99
66312;HTU21D;53114;51.138;6.008;2023-04-23T03:56:05;9.63;118.99
66312;HTU21D;53114;51.138;6.008;2023-04-23T03:58:37;9.55;118.99
66312;HTU21D;53114;51.138;6.008;2023-04-23T04:01:03;9.51;118.99
66312;HTU21D;53114;51.138;6.008;2023-04-23T04:03:29;9.51;118.99
66312;HTU21D;53114;51.138;6.008;2023-04-23T04:05:55;9.59;118.99
66312;HTU21D;53114;51.138;6.008;2023-04-23T04:08:21;9.66;118.99
66312;HTU21D;53114;51.138;6.008;2023-04-23T04:10:47;9.75;118.99
66312;HTU21D;53114;51.138;6.008;2023-04-23T04:13:13;9.86;118.99
66312;HTU21D;53114;51.138;6.008;2023-04-23T04:15:40;9.98;118.99
66312;HTU21D;53114;51.138;6.008;2023-04-23T04:18:06;10.12;118.99
66312;HTU21D;53114;51.138;6.008;2023-04-23T04:20:32;10.25;118.99
66312;HTU21D;53114;51.138;6.008;2023-04-23T04:22:58;10.38;118.99
66312;HTU21D;53114;51.138;6.008;2023-04-23T04:25:24;10.44;118.99
66312;HTU21D;53114;51.138;6.008;2023-04-23T04:27:50;10.42;118.99
66312;HTU21D;53114;51.138;6.008;2023-04-23T04:30:16;10.45;118.99
66312;HTU21D;53114;51.138;6.008;2023-04-23T04:32:42;10.52;118.99
66312;HTU21D;53114;51.138;6.008;2023-04-23T04:35:10;10.57;118.99
66312;HTU21D;53114;51.138;6.008;2023-04-23T04:37:37;10.64;118.99
66312;HTU21D;53114;51.138;6.008;2023-04-23T04:40:03;10.67;118.99
66312;HTU21D;53114;51.138;6.008;2023-04-23T04:42:32;10.70;118.99
66312;HTU21D;53114;51.138;6.008;2023-04-23T04:44:58;10.74;118.99
66312;HTU21D;53114;51.138;6.008;2023-04-23T04:47:25;10.84;118.99
66312;HTU21D;53114;51.138;6.008;2023-04-23T04:49:51;10.92;118.99
66312;HTU21D;53114;51.138;6.008;2023-04-23T04:52:17;10.97;118.99
66312;HTU21D;53114;51.138;6.008;2023-04-23T04:54:44;10.98;118.99
66312;HTU21D;53114;51.138;6.008;2023-04-23T04:57:10;10.98;118.99
66312;HTU21D;53114;51.138;6.008;2023-04-23T04:59:36;11.02;118.99
66312;HTU21D;53114;51.138;6.008;2023-04-23T05:02:01;11.08;118.99
66312;HTU21D;53114;51.138;6.008;2023-04-23T05:04:27;11.09;118.99
66312;HTU21D;53114;51.138;6.008;2023-04-23T05:06:53;11.11;118.99
66312;HTU21D;53114;51.138;6.008;2023-04-23T05:09:19;11.14;118.99
66312;HTU21D;53114;51.138;6.008;2023-04-23T05:11:45;11.24;118.99
66312;HTU21D;53114;51.138;6.008;2023-04-23T05:14:11;11.31;118.99
66312;HTU21D;53114;51.138;6.008;2023-04-23T05:16:37;11.38;118.99
66312;HTU21D;53114;51.138;6.008;2023-04-23T05:19:03;11.40;118.99
66312;HTU21D;53114;51.138;6.008;2023-04-23T05:21:29;11.44;118.99
66312;HTU21D;53114;51.138;6.008;2023-04-23T05:23:56;11.47;118.99
66312;HTU21D;53114;51.138;6.008;2023-04-23T05:26:22;11.44;118.99
66312;HTU21D;53114;51.138;6.008;2023-04-23T05:28:48;11.37;118.99
66312;HTU21D;53114;51.138;6.008;2023-04-23T05:31:14;11.28;118.99
66312;HTU21D;53114;51.138;6.008;2023-04-23T05:33:40;11.22;118.99
66312;HTU21D;53114;51.138;6.008;2023-04-23T05:36:08;11.14;118.99
66312;HTU21D;53114;51.138;6.008;2023-04-23T05:38:34;11.09;118.99
66312;HTU21D;53114;51.138;6.008;2023-04-23T05:41:00;11.02;118.99
66312;HTU21D;53114;51.138;6.008;2023-04-23T05:43:26;11.00;118.99
66312;HTU21D;53114;51.138;6.008;2023-04-23T05:45:51;11.00;118.99
66312;HTU21D;53114;51.138;6.008;2023-04-23T05:48:17;11.05;118.99
66312;HTU21D;53114;51.138;6.008;2023-04-23T05:50:43;11.09;118.99
66312;HTU21D;53114;51.138;6.008;2023-04-23T05:53:09;11.11;118.99
66312;HTU21D;53114;51.138;6.008;2023-04-23T05:55:35;11.12;118.99
66312;HTU21D;53114;51.138;6.008;2023-04-23T05:58:01;11.19;118.99
66312;HTU21D;53114;51.138;6.008;2023-04-23T06:00:27;11.27;118.99
66312;HTU21D;53114;51.138;6.008;2023-04-23T06:02:53;11.38;118.99
66312;HTU21D;53114;51.138;6.008;2023-04-23T06:05:19;11.55;118.99
66312;HTU21D;53114;51.138;6.008;2023-04-23T06:07:45;11.74;118.99
66312;HTU21D;53114;51.138;6.008;2023-04-23T06:10:11;11.85;118.99
66312;HTU21D;53114;51.138;6.008;2023-04-23T06:12:37;12.06;118.99
66312;HTU21D;53114;51.138;6.008;2023-04-23T06:15:06;12.32;118.99
66312;HTU21D;53114;51.138;6.008;2023-04-23T06:17:33;12.53;118.99
66312;HTU21D;53114;51.138;6.008;2023-04-23T06:19:59;12.77;118.99
66312;HTU21D;53114;51.138;6.008;2023-04-23T06:22:31;12.89;118.99
66312;HTU21D;53114;51.138;6.008;2023-04-23T06:24:57;12.94;118.99
66312;HTU21D;53114;51.138;6.008;2023-04-23T06:27:23;12.91;118.99
66312;HTU21D;53114;51.138;6.008;2023-04-23T06:29:51;12.93;118.99
66312;HTU21D;53114;51.138;6.008;2023-04-23T06:32:18;12.89;118.99
66312;HTU21D;53114;51.138;6.008;2023-04-23T06:34:44;12.85;118.99
66312;HTU21D;53114;51.138;6.008;2023-04-23T06:37:10;12.85;118.99
66312;HTU21D;53114;51.138;6.008;2023-04-23T06:39:36;12.82;118.99
66312;HTU21D;53114;51.138;6.008;2023-04-23T06:42:01;12.87;118.99
66312;HTU21D;53114;51.138;6.008;2023-04-23T06:44:33;12.88;118.99
66312;HTU21D;53114;51.138;6.008;2023-04-23T06:46:59;12.92;118.99
66312;HTU21D;53114;51.138;6.008;2023-04-23T06:49:26;13.01;118.99
66312;HTU21D;53114;51.138;6.008;2023-04-23T06:51:51;13.05;118.99
66312;HTU21D;53114;51.138;6.008;2023-04-23T06:54:17;13.18;118.99
66312;HTU21D;53114;51.138;6.008;2023-04-23T06:56:43;13.26;118.99
66312;HTU21D;53114;51.138;6.008;2023-04-23T06:59:09;13.27;118.99
66312;HTU21D;53114;51.138;6.008;2023-04-23T07:01:43;13.38;118.99
66312;HTU21D;53114;51.138;6.008;2023-04-23T07:04:09;13.44;118.99
66312;HTU21D;53114;51.138;6.008;2023-04-23T07:06:35;13.67;118.99
66312;HTU21D;53114;51.138;6.008;2023-04-23T07:09:01;13.90;118.99
66312;HTU21D;53114;51.138;6.008;2023-04-23T07:11:27;14.05;118.99
66312;HTU21D;53114;51.138;6.008;2023-04-23T07:13:55;14.20;118.99
66312;HTU21D;53114;51.138;6.008;2023-04-23T07:16:21;14.44;118.99
66312;HTU21D;53114;51.138;6.008;2023-04-23T07:18:48;14.66;118.99
66312;HTU21D;53114;51.138;6.008;2023-04-23T07:21:14;14.94;118.99
66312;HTU21D;53114;51.138;6.008;2023-04-23T07:23:40;15.15;118.99
66312;HTU21D;53114;51.138;6.008;2023-04-23T07:26:06;15.17;118.99
66312;HTU21D;53114;51.138;6.008;2023-04-23T07:28:33;15.39;118.99
66312;HTU21D;53114;51.138;6.008;2023-04-23T07:30:59;15.61;118.99
66312;HTU21D;53114;51.138;6.008;2023-04-23T07:33:26;15.65;118.99
66312;HTU21D;53114;51.138;6.008;2023-04-23T07:35:52;15.65;118.99
66312;HTU21D;53114;51.138;6.008;2023-04-23T07:38:18;15.59;118.99
66312;HTU21D;53114;51.138;6.008;2023-04-23T07:40:44;15.47;118.99
66312;HTU21D;53114;51.138;6.008;2023-04-23T07:43:10;15.44;118.99
66312;HTU21D;53114;51.138;6.008;2023-04-23T07:45:36;15.91;118.99
66312;HTU21D;53114;51.138;6.008;2023-04-23T07:48:02;16.56;118.99
66312;HTU21D;53114;51.138;6.008;2023-04-23T07:50:28;17.14;117.82
66312;HTU21D;53114;51.138;6.008;2023-04-23T07:52:54;17.49;118.99
66312;HTU21D;53114;51.138;6.008;2023-04-23T07:55:20;17.62;118.99
66312;HTU21D;53114;51.138;6.008;2023-04-23T07:57:46;17.64;110.88
66312;HTU21D;53114;51.138;6.008;2023-04-23T08:00:12;18.06;118.99
66312;HTU21D;53114;51.138;6.008;2023-04-23T08:02:39;19.09;118.99
66312;HTU21D;53114;51.138;6.008;2023-04-23T08:05:05;20.18;103.18
66312;HTU21D;53114;51.138;6.008;2023-04-23T08:07:31;20.54;100.70
66312;HTU21D;53114;51.138;6.008;2023-04-23T08:09:57;20.37;101.08
66312;HTU21D;53114;51.138;6.008;2023-04-23T08:12:27;20.60;107.30
66312;HTU21D;53114;51.138;6.008;2023-04-23T08:14:54;21.33;104.84
66312;HTU21D;53114;51.138;6.008;2023-04-23T08:17:24;22.56;68.03
66312;HTU21D;53114;51.138;6.008;2023-04-23T08:19:50;23.30;79.02
66312;HTU21D;53114;51.138;6.008;2023-04-23T08:22:16;24.11;69.63
66312;HTU21D;53114;51.138;6.008;2023-04-23T08:24:43;25.30;55.39
66312;HTU21D;53114;51.138;6.008;2023-04-23T08:27:11;25.61;44.29
66312;HTU21D;53114;51.138;6.008;2023-04-23T08:29:36;25.54;50.88
66312;HTU21D;53114;51.138;6.008;2023-04-23T08:32:02;25.80;53.75
66312;HTU21D;53114;51.138;6.008;2023-04-23T08:34:28;26.26;43.20
66312;HTU21D;53114;51.138;6.008;2023-04-23T08:36:54;26.78;48.46
66312;HTU21D;53114;51.138;6.008;2023-04-23T08:39:20;27.52;46.25
66312;HTU21D;53114;51.138;6.008;2023-04-23T08:41:53;28.29;42.04
66312;HTU21D;53114;51.138;6.008;2023-04-23T08:44:24;29.07;33.50
66312;HTU21D;53114;51.138;6.008;2023-04-23T08:46:53;29.31;38.90
66312;HTU21D;53114;51.138;6.008;2023-04-23T08:49:19;28.79;36.30
66312;HTU21D;53114;51.138;6.008;2023-04-23T08:52:24;28.43;34.48
66312;HTU21D;53114;51.138;6.008;2023-04-23T08:54:52;27.52;37.11
66312;HTU21D;53114;51.138;6.008;2023-04-23T08:57:18;26.99;42.54
66312;HTU21D;53114;51.138;6.008;2023-04-23T08:59:45;26.24;40.36
66312;HTU21D;53114;51.138;6.008;2023-04-23T09:02:12;25.66;41.10
66312;HTU21D;53114;51.138;6.008;2023-04-23T09:04:40;24.94;45.80
66312;HTU21D;53114;51.138;6.008;2023-04-23T09:07:06;25.21;48.42
66312;HTU21D;53114;51.138;6.008;2023-04-23T09:09:38;25.64;46.63
66312;HTU21D;53114;51.138;6.008;2023-04-23T09:12:06;25.61;41.72
66312;HTU21D;53114;51.138;6.008;2023-04-23T09:14:34;24.76;43.67
66312;HTU21D;53114;51.138;6.008;2023-04-23T09:17:02;23.95;49.95
66312;HTU21D;53114;51.138;6.008;2023-04-23T09:19:28;23.67;45.73
66312;HTU21D;53114;51.138;6.008;2023-04-23T09:21:54;23.35;45.86
66312;HTU21D;53114;51.138;6.008;2023-04-23T09:24:24;23.55;50.13
66312;HTU21D;53114;51.138;6.008;2023-04-23T09:26:51;23.57;49.11
66312;HTU21D;53114;51.138;6.008;2023-04-23T09:29:19;23.47;51.11
66312;HTU21D;53114;51.138;6.008;2023-04-23T09:31:47;23.56;49.60
66312;HTU21D;53114;51.138;6.008;2023-04-23T09:34:24;22.70;52.65
66312;HTU21D;53114;51.138;6.008;2023-04-23T09:36:51;22.62;56.16
66312;HTU21D;53114;51.138;6.008;2023-04-23T09:39:21;22.61;53.16
66312;HTU21D;53114;51.138;6.008;2023-04-23T09:41:47;21.58;59.38
66312;HTU21D;53114;51.138;6.008;2023-04-23T09:44:20;20.85;64.07
66312;HTU21D;53114;51.138;6.008;2023-04-23T09:46:49;21.50;64.53
66312;HTU21D;53114;51.138;6.008;2023-04-23T09:49:15;22.03;60.70
66312;HTU21D;53114;51.138;6.008;2023-04-23T09:51:44;21.76;50.73
66312;HTU21D;53114;51.138;6.008;2023-04-23T09:54:13;21.19;55.86
66312;HTU21D;53114;51.138;6.008;2023-04-23T09:56:42;20.91;64.93
66312;HTU21D;53114;51.138;6.008;2023-04-23T09:59:38;20.41;65.02
66312;HTU21D;53114;51.138;6.008;2023-04-23T10:02:06;20.14;68.27
66312;HTU21D;53114;51.138;6.008;2023-04-23T10:04:33;19.69;68.65
66312;HTU21D;53114;51.138;6.008;2023-04-23T10:07:01;19.31;79.84
66312;HTU21D;53114;51.138;6.008;2023-04-23T10:09:29;19.12;80.50
66312;HTU21D;53114;51.138;6.008;2023-04-23T10:11:59;19.79;87.37
66312;HTU21D;53114;51.138;6.008;2023-04-23T10:14:29;21.49;76.40
66312;HTU21D;53114;51.138;6.008;2023-04-23T10:16:59;23.03;49.66
66312;HTU21D;53114;51.138;6.008;2023-04-23T10:19:26;23.46;48.60
66312;HTU21D;53114;51.138;6.008;2023-04-23T10:21:56;23.52;50.43
66312;HTU21D;53114;51.138;6.008;2023-04-23T10:24:26;23.80;50.17
66312;HTU21D;53114;51.138;6.008;2023-04-23T10:26:59;23.39;48.14
66312;HTU21D;53114;51.138;6.008;2023-04-23T10:29:30;22.41;53.72
66312;HTU21D;53114;51.138;6.008;2023-04-23T10:32:01;21.28;55.39
66312;HTU21D;53114;51.138;6.008;2023-04-23T10:34:29;20.80;60.41
66312;HTU21D;53114;51.138;6.008;2023-04-23T10:36:57;20.58;63.89
66312;HTU21D;53114;51.138;6.008;2023-04-23T10:39:33;20.36;65.55
66312;HTU21D;53114;51.138;6.008;2023-04-23T10:42:01;19.99;67.44
66312;HTU21D;53114;51.138;6.008;2023-04-23T10:44:35;19.74;73.84
66312;HTU21D;53114;51.138;6.008;2023-04-23T10:47:03;19.59;74.61
66312;HTU21D;53114;51.138;6.008;2023-04-23T10:49:32;19.32;77.15
66312;HTU21D;53114;51.138;6.008;2023-04-23T10:52:00;19.12;82.56
66312;HTU21D;53114;51.138;6.008;2023-04-23T10:54:34;18.87;83.75
66312;HTU21D;53114;51.138;6.008;2023-04-23T10:57:05;18.59;87.65
66312;HTU21D;53114;51.138;6.008;2023-04-23T10:59:33;18.65;89.66
66312;HTU21D;53114;51.138;6.008;2023-04-23T11:02:11;18.99;88.33
66312;HTU21D;53114;51.138;6.008;2023-04-23T11:04:56;19.25;77.55
66312;HTU21D;53114;51.138;6.008;2023-04-23T11:07:29;19.51;84.48
66312;HTU21D;53114;51.138;6.008;2023-04-23T11:09:58;19.76;81.53
66312;HTU21D;53114;51.138;6.008;2023-04-23T11:14:53;20.24;78.34
66312;HTU21D;53114;51.138;6.008;2023-04-23T11:20:18;20.14;74.64
66312;HTU21D;53114;51.138;6.008;2023-04-23T11:22:46;19.89;71.80
66312;HTU21D;53114;51.138;6.008;2023-04-23T11:25:26;19.91;78.68
66312;HTU21D;53114;51.138;6.008;2023-04-23T11:27:55;19.96;77.36
66312;HTU21D;53114;51.138;6.008;2023-04-23T11:30:26;19.98;67.66
66312;HTU21D;53114;51.138;6.008;2023-04-23T11:32:54;19.88;75.87
66312;HTU21D;53114;51.138;6.008;2023-04-23T11:35:23;19.54;66.67
66312;HTU21D;53114;51.138;6.008;2023-04-23T11:37:53;19.37;75.91
66312;HTU21D;53114;51.138;6.008;2023-04-23T11:40:20;19.28;77.28
66312;HTU21D;53114;51.138;6.008;2023-04-23T11:42:51;19.40;73.81
66312;HTU21D;53114;51.138;6.008;2023-04-23T11:45:28;19.53;70.43
66312;HTU21D;53114;51.138;6.008;2023-04-23T11:47:56;19.44;67.19
66312;HTU21D;53114;51.138;6.008;2023-04-23T11:50:27;19.55;71.17
66312;HTU21D;53114;51.138;6.008;2023-04-23T11:52:54;19.59;69.20
66312;HTU21D;53114;51.138;6.008;2023-04-23T11:55:21;19.75;59.46
66312;HTU21D;53114;51.138;6.008;2023-04-23T11:57:49;19.90;60.14
66312;HTU21D;53114;51.138;6.008;2023-04-23T12:00:26;19.85;53.23
66312;HTU21D;53114;51.138;6.008;2023-04-23T12:03:00;19.92;59.73
66312;HTU21D;53114;51.138;6.008;2023-04-23T12:05:32;20.11;57.05
66312;HTU21D;53114;51.138;6.008;2023-04-23T12:08:18;20.12;54.03
66312;HTU21D;53114;51.138;6.008;2023-04-23T12:10:52;20.32;56.58
66312;HTU21D;53114;51.138;6.008;2023-04-23T12:13:22;20.44;54.93
66312;HTU21D;53114;51.138;6.008;2023-04-23T12:15:50;20.66;57.58
66312;HTU21D;53114;51.138;6.008;2023-04-23T12:18:17;20.80;55.91
66312;HTU21D;53114;51.138;6.008;2023-04-23T12:20:44;20.86;53.58
66312;HTU21D;53114;51.138;6.008;2023-04-23T12:23:10;21.05;57.77
66312;HTU21D;53114;51.138;6.008;2023-04-23T12:25:39;21.19;53.66
66312;HTU21D;53114;51.138;6.008;2023-04-23T12:28:07;21.16;58.38
66312;HTU21D;53114;51.138;6.008;2023-04-23T12:30:41;21.27;54.94
66312;HTU21D;53114;51.138;6.008;2023-04-23T12:33:09;21.49;55.58
66312;HTU21D;53114;51.138;6.008;2023-04-23T12:35:39;21.72;47.09
66312;HTU21D;53114;51.138;6.008;2023-04-23T12:38:06;21.62;51.95
66312;HTU21D;53114;51.138;6.008;2023-04-23T12:40:32;21.51;51.13
66312;HTU21D;53114;51.138;6.008;2023-04-23T12:42:58;21.30;50.14
66312;HTU21D;53114;51.138;6.008;2023-04-23T12:45:24;21.11;53.80
66312;HTU21D;53114;51.138;6.008;2023-04-23T12:47:50;21.15;56.17
66312;HTU21D;53114;51.138;6.008;2023-04-23T12:50:16;21.47;56.07
66312;HTU21D;53114;51.138;6.008;2023-04-23T12:52:42;21.63;52.94
66312;HTU21D;53114;51.138;6.008;2023-04-23T12:55:08;21.45;52.41
66312;HTU21D;53114;51.138;6.008;2023-04-23T12:57:34;21.28;54.87
66312;HTU21D;53114;51.138;6.008;2023-04-23T13:00:00;21.16;55.66
66312;HTU21D;53114;51.138;6.008;2023-04-23T13:02:26;20.95;51.41
66312;HTU21D;53114;51.138;6.008;2023-04-23T13:04:52;20.74;56.61
66312;HTU21D;53114;51.138;6.008;2023-04-23T13:07:24;20.84;53.72
66312;HTU21D;53114;51.138;6.008;2023-04-23T13:09:49;21.01;56.81
66312;HTU21D;53114;51.138;6.008;2023-04-23T13:12:15;21.27;54.86
66312;HTU21D;53114;51.138;6.008;2023-04-23T13:14:41;21.48;52.79
66312;HTU21D;53114;51.138;6.008;2023-04-23T13:17:07;21.58;51.18
66312;HTU21D;53114;51.138;6.008;2023-04-23T13:19:33;21.49;51.27
66312;HTU21D;53114;51.138;6.008;2023-04-23T13:22:02;21.36;50.25
66312;HTU21D;53114;51.138;6.008;2023-04-23T13:24:29;21.08;47.20
66312;HTU21D;53114;51.138;6.008;2023-04-23T13:26:55;20.76;52.70
66312;HTU21D;53114;51.138;6.008;2023-04-23T13:29:22;20.42;49.37
66312;HTU21D;53114;51.138;6.008;2023-04-23T13:31:49;20.17;54.52
66312;HTU21D;53114;51.138;6.008;2023-04-23T13:34:15;20.02;54.08
66312;HTU21D;53114;51.138;6.008;2023-04-23T13:36:41;19.85;50.18
66312;HTU21D;53114;51.138;6.008;2023-04-23T13:39:08;19.71;54.62
66312;HTU21D;53114;51.138;6.008;2023-04-23T13:41:35;19.62;57.80
66312;HTU21D;53114;51.138;6.008;2023-04-23T13:44:01;19.44;60.87
66312;HTU21D;53114;51.138;6.008;2023-04-23T13:46:27;18.89;61.13
66312;HTU21D;53114;51.138;6.008;2023-04-23T13:48:53;18.21;68.95
66312;HTU21D;53114;51.138;6.008;2023-04-23T13:51:19;17.73;80.28
66312;HTU21D;53114;51.138;6.008;2023-04-23T13:53:44;17.20;87.43
66312;HTU21D;53114;51.138;6.008;2023-04-23T13:56:11;16.86;92.58
66312;HTU21D;53114;51.138;6.008;2023-04-23T13:58:37;16.74;94.90
66312;HTU21D;53114;51.138;6.008;2023-04-23T14:01:07;16.71;96.89
66312;HTU21D;53114;51.138;6.008;2023-04-23T14:03:34;16.75;97.54
66312;HTU21D;53114;51.138;6.008;2023-04-23T14:06:00;16.81;98.76
66312;HTU21D;53114;51.138;6.008;2023-04-23T14:08:27;16.84;98.81
66312;HTU21D;53114;51.138;6.008;2023-04-23T14:10:53;16.82;99.09
66312;HTU21D;53114;51.138;6.008;2023-04-23T14:13:19;16.76;101.86
66312;HTU21D;53114;51.138;6.008;2023-04-23T14:15:45;16.73;103.71
66312;HTU21D;53114;51.138;6.008;2023-04-23T14:18:11;16.66;106.01
66312;HTU21D;53114;51.138;6.008;2023-04-23T14:20:37;16.58;105.88
66312;HTU21D;53114;51.138;6.008;2023-04-23T14:25:57;16.36;111.91
66312;HTU21D;53114;51.138;6.008;2023-04-23T14:30:55;15.78;118.99
66312;HTU21D;53114;51.138;6.008;2023-04-23T14:33:22;15.47;118.99
66312;HTU21D;53114;51.138;6.008;2023-04-23T14:35:48;15.21;118.99
66312;HTU21D;53114;51.138;6.008;2023-04-23T14:38:14;15.10;118.99
66312;HTU21D;53114;51.138;6.008;2023-04-23T14:40:40;15.08;118.99
66312;HTU21D;53114;51.138;6.008;2023-04-23T14:43:06;15.08;118.99
66312;HTU21D;53114;51.138;6.008;2023-04-23T14:45:32;15.10;118.99
66312;HTU21D;53114;51.138;6.008;2023-04-23T14:47:58;15.07;118.99
66312;HTU21D;53114;51.138;6.008;2023-04-23T14:50:24;15.11;118.99
66312;HTU21D;53114;51.138;6.008;2023-04-23T14:52:50;15.21;118.99
66312;HTU21D;53114;51.138;6.008;2023-04-23T14:55:17;15.15;118.99
66312;HTU21D;53114;51.138;6.008;2023-04-23T14:57:43;15.11;118.99
66312;HTU21D;53114;51.138;6.008;2023-04-23T15:00:10;15.09;118.99
66312;HTU21D;53114;51.138;6.008;2023-04-23T15:02:38;14.99;118.99
66312;HTU21D;53114;51.138;6.008;2023-04-23T15:05:08;14.80;118.99
66312;HTU21D;53114;51.138;6.008;2023-04-23T15:07:35;14.69;118.99
66312;HTU21D;53114;51.138;6.008;2023-04-23T15:10:02;14.59;118.99
66312;HTU21D;53114;51.138;6.008;2023-04-23T15:15:14;14.45;118.99
66312;HTU21D;53114;51.138;6.008;2023-04-23T15:17:41;14.47;118.99
66312;HTU21D;53114;51.138;6.008;2023-04-23T15:20:07;14.63;118.99
66312;HTU21D;53114;51.138;6.008;2023-04-23T15:22:33;14.71;118.99
66312;HTU21D;53114;51.138;6.008;2023-04-23T15:24:58;14.73;118.99